OB2032 SUMU-SULS
Flight info
| Callsign | OB2032 |
|---|---|
| Flight time | 0h 26m |
| Altitude | 5000 |
| Route | SUMU/25 DCT LUCIO DCT LS009XRNPXZ/08 |
| Aircraft | PA34/M-SDG/C |
Departure
| Time | 2026-04-25 23:36 |
|---|---|
| Airport | Carrasco General Cesáreo L. Berisso International Airport (SUMU) |
Arrival
| Time | 2026-04-26 00:02 |
|---|---|
| Airport | Capitan Corbeta CA Curbelo International Airport (SULS) |
| Time | Latitude | Longitude | Altitude | Speed | Heading |
|---|---|---|---|---|---|
| 2026-04-25 23:30 | -34.83661 | -56.02038 | 81 ft | 0 kts | 52° |
| 2026-04-25 23:31 | -34.83644 | -56.02011 | 83 ft | 15 kts | 53° |
| 2026-04-25 23:32 | -34.83530 | -56.01827 | 87 ft | 29 kts | 52° |
| 2026-04-25 23:32 | -34.83443 | -56.01769 | 88 ft | 10 kts | 327° |
| 2026-04-25 23:32 | -34.83401 | -56.01805 | 88 ft | 0 kts | 325° |
| 2026-04-25 23:33 | -34.83321 | -56.01877 | 90 ft | 30 kts | 323° |
| 2026-04-25 23:33 | -34.83257 | -56.01935 | 88 ft | 0 kts | 317° |
| 2026-04-25 23:33 | -34.83256 | -56.01935 | 87 ft | 0 kts | 317° |
| 2026-04-25 23:35 | -34.83209 | -56.01988 | 85 ft | 22 kts | 301° |
| 2026-04-25 23:35 | -34.83286 | -56.02173 | 83 ft | 42 kts | 232° |
| 2026-04-25 23:35 | -34.83593 | -56.02670 | 87 ft | 102 kts | 232° |
| 2026-04-25 23:35 | -34.84026 | -56.03396 | 319 ft | 108 kts | 236° |
| 2026-04-25 23:36 | -34.84447 | -56.04120 | 669 ft | 104 kts | 236° |
| 2026-04-25 23:36 | -34.84706 | -56.04621 | 837 ft | 107 kts | 238° |
| 2026-04-25 23:36 | -34.85486 | -56.05273 | 1269 ft | 108 kts | 179° |
| 2026-04-25 23:36 | -34.86132 | -56.04922 | 1677 ft | 101 kts | 139° |
| 2026-04-25 23:37 | -34.86645 | -56.04332 | 2004 ft | 104 kts | 132° |
| 2026-04-25 23:37 | -34.86966 | -56.03523 | 2259 ft | 111 kts | 95° |
| 2026-04-25 23:37 | -34.86744 | -56.02643 | 2591 ft | 107 kts | 57° |
| 2026-04-25 23:37 | -34.86336 | -56.01910 | 2938 ft | 107 kts | 53° |
| 2026-04-25 23:38 | -34.85914 | -56.01142 | 3246 ft | 108 kts | 54° |
| 2026-04-25 23:38 | -34.85488 | -56.00396 | 3570 ft | 109 kts | 52° |
| 2026-04-25 23:38 | -34.85020 | -55.99666 | 3888 ft | 109 kts | 50° |
| 2026-04-25 23:38 | -34.84569 | -55.98918 | 4204 ft | 110 kts | 51° |
| 2026-04-25 23:39 | -34.83992 | -55.98336 | 4460 ft | 113 kts | 17° |
| 2026-04-25 23:39 | -34.83474 | -55.98265 | 4622 ft | 111 kts | 356° |
| 2026-04-25 23:39 | -34.82529 | -55.97986 | 5000 ft | 117 kts | 52° |
| 2026-04-25 23:39 | -34.82460 | -55.97335 | 5063 ft | 127 kts | 101° |
| 2026-04-25 23:40 | -34.82944 | -55.96162 | 5426 ft | 121 kts | 123° |
| 2026-04-25 23:40 | -34.83423 | -55.95259 | 5368 ft | 135 kts | 130° |
| 2026-04-25 23:40 | -34.84049 | -55.94345 | 5256 ft | 147 kts | 133° |
| 2026-04-25 23:40 | -34.84533 | -55.93695 | 4867 ft | 166 kts | 135° |
| 2026-04-25 23:41 | -34.85257 | -55.92765 | 4880 ft | 156 kts | 135° |
| 2026-04-25 23:41 | -34.86190 | -55.91542 | 4966 ft | 141 kts | 134° |
| 2026-04-25 23:41 | -34.86633 | -55.90957 | 5007 ft | 138 kts | 134° |
| 2026-04-25 23:41 | -34.87490 | -55.89806 | 5005 ft | 139 kts | 133° |
| 2026-04-25 23:42 | -34.87928 | -55.89214 | 5002 ft | 139 kts | 134° |
| 2026-04-25 23:42 | -34.88580 | -55.88336 | 5005 ft | 140 kts | 134° |
| 2026-04-25 23:42 | -34.89234 | -55.87455 | 5004 ft | 140 kts | 134° |
| 2026-04-25 23:42 | -34.89888 | -55.86571 | 5000 ft | 140 kts | 134° |
| 2026-04-25 23:43 | -34.90531 | -55.85697 | 5004 ft | 140 kts | 134° |
| 2026-04-25 23:43 | -34.91181 | -55.84808 | 5001 ft | 141 kts | 134° |
| 2026-04-25 23:43 | -34.91830 | -55.83918 | 5002 ft | 141 kts | 133° |
| 2026-04-25 23:43 | -34.92481 | -55.83028 | 4998 ft | 141 kts | 134° |
| 2026-04-25 23:44 | -34.93138 | -55.82142 | 4999 ft | 141 kts | 134° |
| 2026-04-25 23:44 | -34.93793 | -55.81259 | 5000 ft | 140 kts | 134° |
| 2026-04-25 23:44 | -34.94447 | -55.80375 | 4999 ft | 140 kts | 134° |
| 2026-04-25 23:44 | -34.95101 | -55.79490 | 5000 ft | 140 kts | 134° |
| 2026-04-25 23:45 | -34.95754 | -55.78608 | 5001 ft | 140 kts | 134° |
| 2026-04-25 23:45 | -34.96408 | -55.77725 | 4998 ft | 140 kts | 133° |
| 2026-04-25 23:45 | -34.97056 | -55.76800 | 4855 ft | 145 kts | 132° |
| 2026-04-25 23:45 | -34.97711 | -55.75860 | 4712 ft | 146 kts | 132° |
| 2026-04-25 23:46 | -34.98374 | -55.74914 | 4564 ft | 147 kts | 132° |
| 2026-04-25 23:46 | -34.98896 | -55.73852 | 4384 ft | 148 kts | 105° |
| 2026-04-25 23:46 | -34.98805 | -55.72609 | 4208 ft | 148 kts | 78° |
| 2026-04-25 23:46 | -34.98619 | -55.71371 | 4064 ft | 148 kts | 79° |
| 2026-04-25 23:47 | -34.98435 | -55.70132 | 3911 ft | 148 kts | 79° |
| 2026-04-25 23:47 | -34.98249 | -55.68897 | 3780 ft | 148 kts | 79° |
| 2026-04-25 23:47 | -34.98048 | -55.67668 | 3618 ft | 148 kts | 77° |
| 2026-04-25 23:47 | -34.97841 | -55.66431 | 3373 ft | 148 kts | 78° |
| 2026-04-25 23:48 | -34.97642 | -55.65210 | 3126 ft | 147 kts | 78° |
| 2026-04-25 23:48 | -34.97445 | -55.63995 | 2936 ft | 141 kts | 78° |
| 2026-04-25 23:48 | -34.97254 | -55.62827 | 2957 ft | 142 kts | 78° |
| 2026-04-25 23:48 | -34.97059 | -55.61640 | 2965 ft | 143 kts | 78° |
| 2026-04-25 23:49 | -34.96864 | -55.60449 | 2962 ft | 143 kts | 78° |
| 2026-04-25 23:49 | -34.96669 | -55.59258 | 2966 ft | 143 kts | 78° |
| 2026-04-25 23:49 | -34.96477 | -55.58085 | 2960 ft | 143 kts | 78° |
| 2026-04-25 23:49 | -34.96282 | -55.56895 | 2963 ft | 143 kts | 78° |
| 2026-04-25 23:50 | -34.96088 | -55.55708 | 2956 ft | 143 kts | 78° |
| 2026-04-25 23:50 | -34.95893 | -55.54519 | 2964 ft | 143 kts | 78° |
| 2026-04-25 23:50 | -34.95697 | -55.53328 | 2960 ft | 143 kts | 78° |
| 2026-04-25 23:50 | -34.95502 | -55.52139 | 2966 ft | 143 kts | 78° |
| 2026-04-25 23:51 | -34.95305 | -55.50946 | 2965 ft | 143 kts | 78° |
| 2026-04-25 23:51 | -34.95109 | -55.49755 | 2959 ft | 144 kts | 78° |
| 2026-04-25 23:51 | -34.94913 | -55.48563 | 2965 ft | 143 kts | 78° |
| 2026-04-25 23:51 | -34.94718 | -55.47373 | 2957 ft | 143 kts | 78° |
| 2026-04-25 23:52 | -34.94525 | -55.46186 | 2960 ft | 143 kts | 78° |
| 2026-04-25 23:52 | -34.94334 | -55.45000 | 2959 ft | 142 kts | 78° |
| 2026-04-25 23:52 | -34.94145 | -55.43816 | 2948 ft | 143 kts | 78° |
| 2026-04-25 23:52 | -34.93954 | -55.42629 | 2959 ft | 143 kts | 78° |
| 2026-04-25 23:53 | -34.93761 | -55.41440 | 2965 ft | 143 kts | 78° |
| 2026-04-25 23:53 | -34.93681 | -55.40959 | 2957 ft | 144 kts | 78° |
| 2026-04-25 23:54 | -34.93606 | -55.40504 | 2964 ft | 143 kts | 78° |
| 2026-04-25 23:54 | -34.93410 | -55.39310 | 2956 ft | 144 kts | 77° |
| 2026-04-25 23:54 | -34.93216 | -55.38117 | 2964 ft | 144 kts | 78° |
| 2026-04-25 23:55 | -34.93022 | -55.36925 | 2962 ft | 143 kts | 78° |
| 2026-04-25 23:55 | -34.92830 | -55.35734 | 2964 ft | 143 kts | 78° |
| 2026-04-25 23:55 | -34.92638 | -55.34545 | 2967 ft | 143 kts | 78° |
| 2026-04-25 23:55 | -34.92448 | -55.33355 | 2964 ft | 143 kts | 78° |
| 2026-04-25 23:56 | -34.92257 | -55.32164 | 2957 ft | 143 kts | 77° |
| 2026-04-25 23:56 | -34.92067 | -55.30971 | 2960 ft | 143 kts | 78° |
| 2026-04-25 23:56 | -34.91876 | -55.29782 | 2962 ft | 143 kts | 78° |
| 2026-04-25 23:56 | -34.91685 | -55.28591 | 2961 ft | 143 kts | 78° |
| 2026-04-25 23:57 | -34.91495 | -55.27401 | 2957 ft | 143 kts | 78° |
| 2026-04-25 23:57 | -34.91304 | -55.26214 | 2959 ft | 143 kts | 77° |
| 2026-04-25 23:57 | -34.90917 | -55.25102 | 2817 ft | 148 kts | 54° |
| 2026-04-25 23:57 | -34.90364 | -55.24099 | 2937 ft | 136 kts | 53° |
| 2026-04-25 23:58 | -34.89828 | -55.23126 | 2855 ft | 144 kts | 53° |
| 2026-04-25 23:58 | -34.89279 | -55.22208 | 3087 ft | 113 kts | 50° |
| 2026-04-25 23:58 | -34.88859 | -55.21429 | 3228 ft | 102 kts | 55° |
| 2026-04-25 23:58 | -34.88521 | -55.20639 | 2981 ft | 108 kts | 63° |
| 2026-04-25 23:59 | -34.88271 | -55.19824 | 2557 ft | 100 kts | 70° |
| 2026-04-25 23:59 | -34.88037 | -55.19037 | 2101 ft | 98 kts | 69° |
| 2026-04-25 23:59 | -34.87838 | -55.18251 | 1647 ft | 96 kts | 66° |
| 2026-04-25 23:59 | -34.87635 | -55.17491 | 1201 ft | 94 kts | 73° |
| 2026-04-26 00:00 | -34.87453 | -55.16746 | 1021 ft | 91 kts | 71° |
| 2026-04-26 00:00 | -34.87247 | -55.16009 | 921 ft | 92 kts | 69° |
| 2026-04-26 00:00 | -34.87041 | -55.15286 | 761 ft | 90 kts | 71° |
| 2026-04-26 00:00 | -34.86841 | -55.14578 | 689 ft | 88 kts | 72° |
| 2026-04-26 00:01 | -34.86676 | -55.13853 | 580 ft | 89 kts | 72° |
| 2026-04-26 00:01 | -34.86490 | -55.13149 | 483 ft | 86 kts | 71° |
| 2026-04-26 00:01 | -34.86311 | -55.12461 | 362 ft | 86 kts | 72° |
| 2026-04-26 00:01 | -34.86129 | -55.11759 | 248 ft | 89 kts | 72° |
| 2026-04-26 00:02 | -34.85942 | -55.11032 | 123 ft | 93 kts | 75° |
| 2026-04-26 00:02 | -34.85765 | -55.10389 | 89 ft | 67 kts | 72° |
| 2026-04-26 00:02 | -34.85644 | -55.09937 | 86 ft | 35 kts | 73° |
| 2026-04-26 00:02 | -34.85618 | -55.09801 | 86 ft | 0 kts | 71° |
| 2026-04-26 00:03 | -34.85612 | -55.09781 | 86 ft | 10 kts | 77° |
| 2026-04-26 00:03 | -34.85568 | -55.09611 | 84 ft | 32 kts | 72° |
| 2026-04-26 00:03 | -34.85520 | -55.09427 | 88 ft | 21 kts | 72° |
| 2026-04-26 00:03 | -34.85498 | -55.09312 | 73 ft | 9 kts | 181° |
| 2026-04-26 00:04 | -34.85518 | -55.09400 | 85 ft | 20 kts | 254° |
| 2026-04-26 00:04 | -34.85626 | -55.09398 | 84 ft | 22 kts | 184° |
| 2026-04-26 00:04 | -34.85687 | -55.09398 | 86 ft | 0 kts | 175° |
| 2026-04-26 00:04 | -34.85690 | -55.09398 | 86 ft | 0 kts | 176° |
| 2026-04-26 00:05 | -34.85694 | -55.09397 | 85 ft | 3 kts | 176° |
| 2026-04-26 00:05 | -34.85782 | -55.09392 | 87 ft | 24 kts | 177° |
| 2026-04-26 00:05 | -34.85974 | -55.09383 | 88 ft | 27 kts | 177° |
| 2026-04-26 00:05 | -34.86095 | -55.09387 | 89 ft | 15 kts | 218° |
| 2026-04-26 00:06 | -34.86106 | -55.09455 | 91 ft | 0 kts | 269° |
| 2026-04-26 00:06 | -34.86106 | -55.09491 | 91 ft | 15 kts | 271° |
| 2026-04-26 00:06 | -34.86176 | -55.09569 | 92 ft | 18 kts | 176° |
| 2026-04-26 00:06 | -34.86295 | -55.09562 | 94 ft | 5 kts | 194° |
| 2026-04-26 00:07 | -34.86300 | -55.09564 | 94 ft | 0 kts | 197° |
| 2026-04-26 00:07 | -34.86322 | -55.09574 | 94 ft | 2 kts | 197° |
| 2026-04-26 00:07 | -34.86350 | -55.09580 | 95 ft | 7 kts | 206° |
| 2026-04-26 00:08 | -34.86324 | -55.09655 | 94 ft | 1 kts | 29° |
| 2026-04-26 00:08 | -34.86323 | -55.09655 | 94 ft | 0 kts | 22° |